Impacts TAF Board
For situational awareness. Not to be used for flight planning purposes.
IDs:

KRSW - Ft Myers/SW Florida, FL, US

Issued at 0526 UTC 03 Jul 2022
Updated at 0627 UTC 03 Jul 2022
Potential Impact None Slight Moderate High
Time0553Z 03/07Z 03/08Z 03/09Z 03/10Z 03/11Z 03/12Z 03/13Z 03/14Z 03/15Z 03/16Z 03/17Z 03/18Z 03/19Z>>
Type OBS PRVL PRVL PRVL PRVL PRVL PRVL PRVL PRVL PRVL PRVL PRVL PRVL PRVL
VIS 10 >6 >6 >6 >6 >6 >6 >6 >6 >6 >6 >6 >6 >6
CIG -- -- -- -- -- -- -- -- -- -- -- -- 250 250
Cover CLR SCT SCT SCT SCT SCT SCT SCT SCT SCT SCT SCT BKN BKN
FltCat VFR VFR VFR VFR VFR VFR VFR VFR VFR VFR VFR VFR VFR VFR
WX -- -- -- -- -- -- -- -- -- -- -- -- VCTS VCTS
WDir 60 VRB VRB VRB VRB VRB VRB 140 140 140 140 140 220 220
WSpd 3 3 3 3 3 3 3 5 5 5 5 5 7 7
WGst -- -- -- -- -- -- -- -- -- -- -- -- -- --
WSHgt -- -- -- -- -- -- -- -- -- -- -- -- -- --
WSDir -- -- -- -- -- -- -- -- -- -- -- -- -- --
WSSpd -- -- -- -- -- -- -- -- -- -- -- -- -- --
Raw TAF
KRSW 030526Z 0306/0406 VRB03KT P6SM FEW030 SCT250
  FM031300 14005KT P6SM SCT035 SCT250
  FM031800 22007KT P6SM VCTS SCT035CB SCT100 BKN250
  FM032000 28007KT P6SM VCTS SCT045CB BKN100
  FM040000 VRB04KT P6SM FEW035 BKN250


Raw METAR
KRSW 030553Z 06003KT 10SM CLR 26/24 A3006 RMK AO2 SLP176 T02560244 10261 20250 58006
KRSW 030453Z 10004KT 10SM CLR 26/24 A3007 RMK AO2 SLP180 T02560244 403390244
KRSW 030353Z 05005KT 10SM FEW040 26/24 A3008 RMK AO2 SLP184 T02560244

METAR Board
Radar Display
Forecast Discussion
For situational awareness. Not to be used for flight planning purposes.